sensor_id;sensor_type;location;lat;lon;timestamp;pressure;altitude;pressure_sealevel;temperature;humidity
53635;BME280;39542;-34.932;138.594;2023-08-06T00:00:20;102923.75;;;15.18;60.32
53635;BME280;39542;-34.932;138.594;2023-08-06T00:00:54;102925.07;;;15.20;60.36
53635;BME280;39542;-34.932;138.594;2023-08-06T00:01:28;102923.67;;;15.19;60.35
53635;BME280;39542;-34.932;138.594;2023-08-06T00:02:03;102928.58;;;15.21;60.32
53635;BME280;39542;-34.932;138.594;2023-08-06T00:02:37;102927.61;;;15.22;60.43
53635;BME280;39542;-34.932;138.594;2023-08-06T00:03:11;102928.19;;;15.23;60.56
53635;BME280;39542;-34.932;138.594;2023-08-06T00:03:46;102931.44;;;15.23;60.55
53635;BME280;39542;-34.932;138.594;2023-08-06T00:04:20;102926.77;;;15.23;60.49
53635;BME280;39542;-34.932;138.594;2023-08-06T00:04:55;102924.81;;;15.24;60.51
53635;BME280;39542;-34.932;138.594;2023-08-06T00:05:29;102922.11;;;15.22;60.55
53635;BME280;39542;-34.932;138.594;2023-08-06T00:06:05;102918.05;;;15.23;60.57
53635;BME280;39542;-34.932;138.594;2023-08-06T00:06:39;102915.92;;;15.25;60.49
53635;BME280;39542;-34.932;138.594;2023-08-06T00:07:14;102913.78;;;15.26;60.46
53635;BME280;39542;-34.932;138.594;2023-08-06T00:07:48;102914.17;;;15.26;60.47
53635;BME280;39542;-34.932;138.594;2023-08-06T00:08:22;102914.61;;;15.26;60.57
53635;BME280;39542;-34.932;138.594;2023-08-06T00:08:57;102915.98;;;15.30;60.46
53635;BME280;39542;-34.932;138.594;2023-08-06T00:09:31;102915.21;;;15.28;60.51
53635;BME280;39542;-34.932;138.594;2023-08-06T00:10:06;102918.27;;;15.31;60.41
53635;BME280;39542;-34.932;138.594;2023-08-06T00:10:42;102917.88;;;15.28;60.58
53635;BME280;39542;-34.932;138.594;2023-08-06T00:11:16;102922.29;;;15.30;60.53
53635;BME280;39542;-34.932;138.594;2023-08-06T00:11:50;102920.51;;;15.31;60.41
53635;BME280;39542;-34.932;138.594;2023-08-06T00:12:25;102919.14;;;15.30;60.48
53635;BME280;39542;-34.932;138.594;2023-08-06T00:13:00;102923.70;;;15.31;60.38
53635;BME280;39542;-34.932;138.594;2023-08-06T00:13:34;102924.51;;;15.31;60.67
53635;BME280;39542;-34.932;138.594;2023-08-06T00:14:08;102925.03;;;15.30;60.66
53635;BME280;39542;-34.932;138.594;2023-08-06T00:14:43;102926.73;;;15.30;60.58
53635;BME280;39542;-34.932;138.594;2023-08-06T00:15:17;102923.83;;;15.30;60.57
53635;BME280;39542;-34.932;138.594;2023-08-06T00:15:52;102924.66;;;15.31;60.59
53635;BME280;39542;-34.932;138.594;2023-08-06T00:16:26;102921.57;;;15.32;60.58
53635;BME280;39542;-34.932;138.594;2023-08-06T00:17:00;102923.16;;;15.33;60.59
53635;BME280;39542;-34.932;138.594;2023-08-06T00:17:35;102922.61;;;15.34;60.66
53635;BME280;39542;-34.932;138.594;2023-08-06T00:18:09;102925.72;;;15.35;60.63
53635;BME280;39542;-34.932;138.594;2023-08-06T00:18:44;102924.69;;;15.34;60.66
53635;BME280;39542;-34.932;138.594;2023-08-06T00:19:18;102925.60;;;15.34;60.76
53635;BME280;39542;-34.932;138.594;2023-08-06T00:19:53;102927.46;;;15.36;60.75
53635;BME280;39542;-34.932;138.594;2023-08-06T00:20:27;102929.38;;;15.36;60.65
53635;BME280;39542;-34.932;138.594;2023-08-06T00:21:02;102934.33;;;15.36;60.67
53635;BME280;39542;-34.932;138.594;2023-08-06T00:21:36;102936.46;;;15.36;60.75
53635;BME280;39542;-34.932;138.594;2023-08-06T00:22:10;102933.81;;;15.37;60.73
53635;BME280;39542;-34.932;138.594;2023-08-06T00:22:44;102934.13;;;15.39;60.66
53635;BME280;39542;-34.932;138.594;2023-08-06T00:23:19;102937.21;;;15.39;60.69
53635;BME280;39542;-34.932;138.594;2023-08-06T00:23:53;102936.04;;;15.37;60.74
53635;BME280;39542;-34.932;138.594;2023-08-06T00:24:28;102938.28;;;15.38;60.77
53635;BME280;39542;-34.932;138.594;2023-08-06T00:25:02;102936.14;;;15.39;60.66
53635;BME280;39542;-34.932;138.594;2023-08-06T00:25:37;102936.88;;;15.38;60.60
53635;BME280;39542;-34.932;138.594;2023-08-06T00:26:12;102940.69;;;15.40;60.60
53635;BME280;39542;-34.932;138.594;2023-08-06T00:26:46;102942.54;;;15.40;60.68
53635;BME280;39542;-34.932;138.594;2023-08-06T00:27:20;102947.41;;;15.43;60.56
53635;BME280;39542;-34.932;138.594;2023-08-06T00:27:55;102952.10;;;15.43;60.60
53635;BME280;39542;-34.932;138.594;2023-08-06T00:28:29;102956.00;;;15.44;60.58
53635;BME280;39542;-34.932;138.594;2023-08-06T00:29:03;102956.52;;;15.43;60.56
53635;BME280;39542;-34.932;138.594;2023-08-06T00:29:38;102958.52;;;15.45;60.57
53635;BME280;39542;-34.932;138.594;2023-08-06T00:30:13;102957.54;;;15.45;60.57
53635;BME280;39542;-34.932;138.594;2023-08-06T00:30:51;102958.39;;;15.44;60.58
53635;BME280;39542;-34.932;138.594;2023-08-06T00:31:26;102958.01;;;15.45;60.35
53635;BME280;39542;-34.932;138.594;2023-08-06T00:32:00;102961.87;;;15.46;60.40
53635;BME280;39542;-34.932;138.594;2023-08-06T00:32:34;102961.28;;;15.47;60.40
53635;BME280;39542;-34.932;138.594;2023-08-06T00:33:08;102959.55;;;15.49;60.29
53635;BME280;39542;-34.932;138.594;2023-08-06T00:33:42;102957.44;;;15.48;60.29
53635;BME280;39542;-34.932;138.594;2023-08-06T00:34:17;102955.13;;;15.48;60.16
53635;BME280;39542;-34.932;138.594;2023-08-06T00:34:51;102955.31;;;15.47;60.12
53635;BME280;39542;-34.932;138.594;2023-08-06T00:35:26;102954.78;;;15.48;60.05
53635;BME280;39542;-34.932;138.594;2023-08-06T00:36:00;102954.25;;;15.49;59.93
53635;BME280;39542;-34.932;138.594;2023-08-06T00:36:35;102951.84;;;15.49;59.86
53635;BME280;39542;-34.932;138.594;2023-08-06T00:37:09;102950.20;;;15.50;59.77
53635;BME280;39542;-34.932;138.594;2023-08-06T00:37:44;102947.58;;;15.49;59.79
53635;BME280;39542;-34.932;138.594;2023-08-06T00:38:18;102947.77;;;15.48;59.92
53635;BME280;39542;-34.932;138.594;2023-08-06T00:38:53;102943.88;;;15.47;60.18
53635;BME280;39542;-34.932;138.594;2023-08-06T00:39:27;102939.39;;;15.50;59.93
53635;BME280;39542;-34.932;138.594;2023-08-06T00:40:02;102940.42;;;15.51;59.87
53635;BME280;39542;-34.932;138.594;2023-08-06T00:40:36;102936.48;;;15.50;59.79
53635;BME280;39542;-34.932;138.594;2023-08-06T00:41:11;102933.11;;;15.51;59.85
53635;BME280;39542;-34.932;138.594;2023-08-06T00:41:45;102930.85;;;15.53;59.87
53635;BME280;39542;-34.932;138.594;2023-08-06T00:42:19;102934.23;;;15.51;59.99
53635;BME280;39542;-34.932;138.594;2023-08-06T00:42:54;102932.73;;;15.53;60.11
53635;BME280;39542;-34.932;138.594;2023-08-06T00:43:28;102929.81;;;15.51;60.41
53635;BME280;39542;-34.932;138.594;2023-08-06T00:44:02;102931.59;;;15.51;60.26
53635;BME280;39542;-34.932;138.594;2023-08-06T00:44:37;102932.25;;;15.53;60.36
53635;BME280;39542;-34.932;138.594;2023-08-06T00:45:11;102932.60;;;15.53;60.19
53635;BME280;39542;-34.932;138.594;2023-08-06T00:45:46;102935.34;;;15.55;60.28
53635;BME280;39542;-34.932;138.594;2023-08-06T00:46:20;102937.36;;;15.55;60.19
53635;BME280;39542;-34.932;138.594;2023-08-06T00:46:55;102938.93;;;15.57;60.16
53635;BME280;39542;-34.932;138.594;2023-08-06T00:47:30;102940.66;;;15.57;60.34
53635;BME280;39542;-34.932;138.594;2023-08-06T00:48:05;102941.80;;;15.59;60.44
53635;BME280;39542;-34.932;138.594;2023-08-06T00:48:40;102944.39;;;15.60;60.74
53635;BME280;39542;-34.932;138.594;2023-08-06T00:49:15;102943.38;;;15.58;60.61
53635;BME280;39542;-34.932;138.594;2023-08-06T00:49:49;102941.97;;;15.58;60.74
53635;BME280;39542;-34.932;138.594;2023-08-06T00:50:24;102940.71;;;15.58;60.50
53635;BME280;39542;-34.932;138.594;2023-08-06T00:50:58;102945.20;;;15.60;60.51
53635;BME280;39542;-34.932;138.594;2023-08-06T00:51:33;102942.00;;;15.60;60.64
53635;BME280;39542;-34.932;138.594;2023-08-06T00:52:09;102939.64;;;15.57;60.89
53635;BME280;39542;-34.932;138.594;2023-08-06T00:52:43;102941.88;;;15.60;60.63
53635;BME280;39542;-34.932;138.594;2023-08-06T00:53:18;102939.88;;;15.60;60.60
53635;BME280;39542;-34.932;138.594;2023-08-06T00:53:52;102940.49;;;15.60;60.63
53635;BME280;39542;-34.932;138.594;2023-08-06T00:54:28;102941.60;;;15.58;60.77
53635;BME280;39542;-34.932;138.594;2023-08-06T00:55:03;102943.12;;;15.60;60.62
53635;BME280;39542;-34.932;138.594;2023-08-06T00:55:37;102943.76;;;15.61;60.66
53635;BME280;39542;-34.932;138.594;2023-08-06T00:56:12;102944.21;;;15.61;61.09
53635;BME280;39542;-34.932;138.594;2023-08-06T00:56:47;102945.31;;;15.63;60.96
53635;BME280;39542;-34.932;138.594;2023-08-06T00:57:22;102945.20;;;15.63;60.82
53635;BME280;39542;-34.932;138.594;2023-08-06T00:57:58;102946.55;;;15.65;60.76
53635;BME280;39542;-34.932;138.594;2023-08-06T00:58:33;102942.86;;;15.63;60.94
53635;BME280;39542;-34.932;138.594;2023-08-06T00:59:08;102944.47;;;15.63;60.95
53635;BME280;39542;-34.932;138.594;2023-08-06T00:59:43;102942.00;;;15.64;61.05
53635;BME280;39542;-34.932;138.594;2023-08-06T01:00:18;102940.48;;;15.65;60.98
53635;BME280;39542;-34.932;138.594;2023-08-06T01:00:53;102935.15;;;15.66;61.10
53635;BME280;39542;-34.932;138.594;2023-08-06T01:01:27;102932.82;;;15.65;61.19
53635;BME280;39542;-34.932;138.594;2023-08-06T01:02:02;102931.07;;;15.65;61.33
53635;BME280;39542;-34.932;138.594;2023-08-06T01:02:37;102928.84;;;15.63;61.71
53635;BME280;39542;-34.932;138.594;2023-08-06T01:03:11;102925.04;;;15.65;61.49
53635;BME280;39542;-34.932;138.594;2023-08-06T01:03:46;102923.09;;;15.63;61.58
53635;BME280;39542;-34.932;138.594;2023-08-06T01:04:21;102921.34;;;15.64;61.39
53635;BME280;39542;-34.932;138.594;2023-08-06T01:04:56;102917.88;;;15.66;61.32
53635;BME280;39542;-34.932;138.594;2023-08-06T01:05:31;102915.40;;;15.66;61.80
53635;BME280;39542;-34.932;138.594;2023-08-06T01:06:05;102918.03;;;15.68;61.42
53635;BME280;39542;-34.932;138.594;2023-08-06T01:06:43;102915.06;;;15.67;61.43
53635;BME280;39542;-34.932;138.594;2023-08-06T01:07:32;102913.79;;;15.66;61.75
53635;BME280;39542;-34.932;138.594;2023-08-06T01:08:18;102915.64;;;15.66;61.63
53635;BME280;39542;-34.932;138.594;2023-08-06T01:08:58;102917.49;;;15.65;61.69
53635;BME280;39542;-34.932;138.594;2023-08-06T01:09:43;102920.18;;;15.65;61.79
53635;BME280;39542;-34.932;138.594;2023-08-06T01:10:39;102922.04;;;15.65;61.69
53635;BME280;39542;-34.932;138.594;2023-08-06T01:11:22;102923.63;;;15.65;61.77
53635;BME280;39542;-34.932;138.594;2023-08-06T01:12:09;102926.75;;;15.67;61.70
53635;BME280;39542;-34.932;138.594;2023-08-06T01:12:55;102928.83;;;15.70;61.37
53635;BME280;39542;-34.932;138.594;2023-08-06T01:13:37;102927.46;;;15.71;61.30
53635;BME280;39542;-34.932;138.594;2023-08-06T01:14:18;102933.00;;;15.72;61.32
53635;BME280;39542;-34.932;138.594;2023-08-06T01:15:02;102931.40;;;15.73;61.14
53635;BME280;39542;-34.932;138.594;2023-08-06T01:15:43;102930.94;;;15.71;61.00
53635;BME280;39542;-34.932;138.594;2023-08-06T01:16:21;102929.03;;;15.72;60.29
53635;BME280;39542;-34.932;138.594;2023-08-06T01:16:56;102930.03;;;15.73;60.36
53635;BME280;39542;-34.932;138.594;2023-08-06T01:17:32;102929.61;;;15.72;60.22
53635;BME280;39542;-34.932;138.594;2023-08-06T01:18:08;102927.82;;;15.71;60.49
53635;BME280;39542;-34.932;138.594;2023-08-06T01:18:43;102928.83;;;15.72;60.51
53635;BME280;39542;-34.932;138.594;2023-08-06T01:19:19;102927.83;;;15.72;60.62
53635;BME280;39542;-34.932;138.594;2023-08-06T01:19:53;102925.85;;;15.71;60.47
53635;BME280;39542;-34.932;138.594;2023-08-06T01:20:30;102924.83;;;15.71;60.76
53635;BME280;39542;-34.932;138.594;2023-08-06T01:21:05;102922.62;;;15.70;60.84
53635;BME280;39542;-34.932;138.594;2023-08-06T01:21:39;102924.43;;;15.71;60.92
53635;BME280;39542;-34.932;138.594;2023-08-06T01:22:13;102922.93;;;15.74;60.83
53635;BME280;39542;-34.932;138.594;2023-08-06T01:22:48;102920.82;;;15.76;60.68
53635;BME280;39542;-34.932;138.594;2023-08-06T01:23:22;102919.10;;;15.72;60.84
53635;BME280;39542;-34.932;138.594;2023-08-06T01:23:57;102917.35;;;15.74;60.90
53635;BME280;39542;-34.932;138.594;2023-08-06T01:24:32;102913.98;;;15.75;60.84
53635;BME280;39542;-34.932;138.594;2023-08-06T01:25:07;102913.39;;;15.74;60.87
53635;BME280;39542;-34.932;138.594;2023-08-06T01:25:49;102911.08;;;15.73;60.86
53635;BME280;39542;-34.932;138.594;2023-08-06T01:26:33;102908.42;;;15.69;60.94
53635;BME280;39542;-34.932;138.594;2023-08-06T01:27:14;102904.16;;;15.75;60.60
53635;BME280;39542;-34.932;138.594;2023-08-06T01:27:50;102903.09;;;15.72;60.77
53635;BME280;39542;-34.932;138.594;2023-08-06T01:28:33;102899.99;;;15.77;60.61
53635;BME280;39542;-34.932;138.594;2023-08-06T01:29:17;102896.35;;;15.76;60.61
53635;BME280;39542;-34.932;138.594;2023-08-06T01:30:01;102891.98;;;15.75;60.66
53635;BME280;39542;-34.932;138.594;2023-08-06T01:30:39;102882.67;;;15.75;60.55
53635;BME280;39542;-34.932;138.594;2023-08-06T01:31:21;102886.04;;;15.75;60.79
53635;BME280;39542;-34.932;138.594;2023-08-06T01:31:57;102883.25;;;15.75;60.68
53635;BME280;39542;-34.932;138.594;2023-08-06T01:32:34;102878.67;;;15.76;60.63
53635;BME280;39542;-34.932;138.594;2023-08-06T01:33:13;102875.83;;;15.78;60.42
53635;BME280;39542;-34.932;138.594;2023-08-06T01:33:51;102877.31;;;15.78;60.49
53635;BME280;39542;-34.932;138.594;2023-08-06T01:34:31;102876.82;;;15.78;60.25
53635;BME280;39542;-34.932;138.594;2023-08-06T01:35:07;102875.12;;;15.80;60.19
53635;BME280;39542;-34.932;138.594;2023-08-06T01:35:44;102872.81;;;15.78;60.04
53635;BME280;39542;-34.932;138.594;2023-08-06T01:36:19;102871.91;;;15.80;59.95
53635;BME280;39542;-34.932;138.594;2023-08-06T01:36:55;102869.06;;;15.80;60.02
53635;BME280;39542;-34.932;138.594;2023-08-06T01:37:30;102867.53;;;15.80;59.89
53635;BME280;39542;-34.932;138.594;2023-08-06T01:38:05;102866.88;;;15.81;60.00
53635;BME280;39542;-34.932;138.594;2023-08-06T01:38:39;102865.39;;;15.82;59.84
53635;BME280;39542;-34.932;138.594;2023-08-06T01:39:13;102863.33;;;15.82;59.90
53635;BME280;39542;-34.932;138.594;2023-08-06T01:39:48;102864.15;;;15.83;59.80
53635;BME280;39542;-34.932;138.594;2023-08-06T01:40:22;102862.67;;;15.82;59.86
53635;BME280;39542;-34.932;138.594;2023-08-06T01:40:56;102863.58;;;15.81;59.95
53635;BME280;39542;-34.932;138.594;2023-08-06T01:41:30;102865.00;;;15.81;59.92
53635;BME280;39542;-34.932;138.594;2023-08-06T01:42:05;102864.39;;;15.79;59.92
53635;BME280;39542;-34.932;138.594;2023-08-06T01:42:40;102865.45;;;15.78;59.99
53635;BME280;39542;-34.932;138.594;2023-08-06T01:43:14;102863.73;;;15.81;59.94
53635;BME280;39542;-34.932;138.594;2023-08-06T01:43:49;102861.04;;;15.81;59.90
53635;BME280;39542;-34.932;138.594;2023-08-06T01:44:24;102861.49;;;15.80;59.97
53635;BME280;39542;-34.932;138.594;2023-08-06T01:44:58;102858.64;;;15.79;60.03
53635;BME280;39542;-34.932;138.594;2023-08-06T01:45:33;102855.81;;;15.80;59.95
53635;BME280;39542;-34.932;138.594;2023-08-06T01:46:07;102854.58;;;15.80;59.87
53635;BME280;39542;-34.932;138.594;2023-08-06T01:46:41;102854.83;;;15.78;59.87
53635;BME280;39542;-34.932;138.594;2023-08-06T01:47:16;102855.55;;;15.78;59.85
53635;BME280;39542;-34.932;138.594;2023-08-06T01:47:50;102857.07;;;15.76;59.97
53635;BME280;39542;-34.932;138.594;2023-08-06T01:48:24;102856.32;;;15.81;59.85
53635;BME280;39542;-34.932;138.594;2023-08-06T01:48:59;102857.68;;;15.83;59.86
53635;BME280;39542;-34.932;138.594;2023-08-06T01:49:33;102857.79;;;15.79;59.95
53635;BME280;39542;-34.932;138.594;2023-08-06T01:50:08;102856.49;;;15.81;59.89
53635;BME280;39542;-34.932;138.594;2023-08-06T01:50:42;102854.49;;;15.82;59.92
53635;BME280;39542;-34.932;138.594;2023-08-06T01:51:16;102854.67;;;15.79;59.96
53635;BME280;39542;-34.932;138.594;2023-08-06T01:51:51;102850.43;;;15.78;60.00
53635;BME280;39542;-34.932;138.594;2023-08-06T01:52:25;102849.18;;;15.83;59.91
53635;BME280;39542;-34.932;138.594;2023-08-06T01:52:59;102849.44;;;15.82;59.98
53635;BME280;39542;-34.932;138.594;2023-08-06T01:53:34;102847.59;;;15.84;59.95
53635;BME280;39542;-34.932;138.594;2023-08-06T01:54:08;102844.65;;;15.86;59.81
53635;BME280;39542;-34.932;138.594;2023-08-06T01:54:42;102840.30;;;15.82;59.90
53635;BME280;39542;-34.932;138.594;2023-08-06T01:55:16;102840.02;;;15.84;59.84
53635;BME280;39542;-34.932;138.594;2023-08-06T01:55:51;102842.24;;;15.79;59.86
53635;BME280;39542;-34.932;138.594;2023-08-06T01:56:26;102841.71;;;15.82;59.85
53635;BME280;39542;-34.932;138.594;2023-08-06T01:57:00;102843.55;;;15.84;59.77
53635;BME280;39542;-34.932;138.594;2023-08-06T01:57:34;102841.35;;;15.80;59.82
53635;BME280;39542;-34.932;138.594;2023-08-06T01:58:08;102840.22;;;15.84;59.86
53635;BME280;39542;-34.932;138.594;2023-08-06T01:58:42;102842.01;;;15.83;59.79
53635;BME280;39542;-34.932;138.594;2023-08-06T01:59:17;102841.38;;;15.80;59.76
53635;BME280;39542;-34.932;138.594;2023-08-06T01:59:51;102840.10;;;15.78;59.84
53635;BME280;39542;-34.932;138.594;2023-08-06T02:00:25;102840.73;;;15.80;59.91
53635;BME280;39542;-34.932;138.594;2023-08-06T02:01:01;102841.43;;;15.79;59.95
53635;BME280;39542;-34.932;138.594;2023-08-06T02:01:35;102842.05;;;15.80;59.86
53635;BME280;39542;-34.932;138.594;2023-08-06T02:02:10;102843.65;;;15.81;59.87
53635;BME280;39542;-34.932;138.594;2023-08-06T02:02:44;102842.05;;;15.79;59.84
53635;BME280;39542;-34.932;138.594;2023-08-06T02:03:18;102844.91;;;15.82;59.80
53635;BME280;39542;-34.932;138.594;2023-08-06T02:03:53;102847.59;;;15.83;59.76
53635;BME280;39542;-34.932;138.594;2023-08-06T02:04:27;102847.55;;;15.86;59.67
53635;BME280;39542;-34.932;138.594;2023-08-06T02:05:01;102848.00;;;15.88;59.69
53635;BME280;39542;-34.932;138.594;2023-08-06T02:05:36;102847.32;;;15.86;59.66
53635;BME280;39542;-34.932;138.594;2023-08-06T02:06:10;102846.98;;;15.89;59.64
53635;BME280;39542;-34.932;138.594;2023-08-06T02:06:45;102848.57;;;15.88;59.65
53635;BME280;39542;-34.932;138.594;2023-08-06T02:07:19;102848.36;;;15.89;59.54
53635;BME280;39542;-34.932;138.594;2023-08-06T02:07:53;102850.91;;;15.95;59.30
53635;BME280;39542;-34.932;138.594;2023-08-06T02:08:28;102852.04;;;15.94;59.25
53635;BME280;39542;-34.932;138.594;2023-08-06T02:09:03;102842.39;;;15.92;59.23
53635;BME280;39542;-34.932;138.594;2023-08-06T02:09:37;102842.51;;;15.95;58.40
53635;BME280;39542;-34.932;138.594;2023-08-06T02:10:12;102844.35;;;15.90;56.81
53635;BME280;39542;-34.932;138.594;2023-08-06T02:10:47;102838.68;;;15.92;57.29
53635;BME280;39542;-34.932;138.594;2023-08-06T02:11:21;102839.30;;;15.93;57.04
53635;BME280;39542;-34.932;138.594;2023-08-06T02:11:56;102836.99;;;15.91;56.77
53635;BME280;39542;-34.932;138.594;2023-08-06T02:12:30;102837.63;;;15.91;56.83
53635;BME280;39542;-34.932;138.594;2023-08-06T02:13:04;102837.57;;;15.92;56.44
53635;BME280;39542;-34.932;138.594;2023-08-06T02:13:39;102841.58;;;15.92;56.13
53635;BME280;39542;-34.932;138.594;2023-08-06T02:14:13;102839.77;;;15.91;55.98
53635;BME280;39542;-34.932;138.594;2023-08-06T02:14:47;102836.84;;;15.89;55.95
53635;BME280;39542;-34.932;138.594;2023-08-06T02:15:22;102838.23;;;15.90;55.43
53635;BME280;39542;-34.932;138.594;2023-08-06T02:15:56;102838.97;;;15.87;55.15
53635;BME280;39542;-34.932;138.594;2023-08-06T02:16:30;102838.58;;;15.87;55.18
53635;BME280;39542;-34.932;138.594;2023-08-06T02:17:05;102841.81;;;15.90;55.12
53635;BME280;39542;-34.932;138.594;2023-08-06T02:17:40;102842.66;;;15.94;55.32
53635;BME280;39542;-34.932;138.594;2023-08-06T02:18:14;102842.53;;;15.94;55.35
53635;BME280;39542;-34.932;138.594;2023-08-06T02:18:48;102844.11;;;15.95;55.46
53635;BME280;39542;-34.932;138.594;2023-08-06T02:19:23;102843.48;;;15.91;55.51
53635;BME280;39542;-34.932;138.594;2023-08-06T02:19:57;102840.78;;;15.90;55.16
53635;BME280;39542;-34.932;138.594;2023-08-06T02:20:31;102842.44;;;15.90;55.29
53635;BME280;39542;-34.932;138.594;2023-08-06T02:21:05;102840.05;;;15.91;55.34
53635;BME280;39542;-34.932;138.594;2023-08-06T02:21:40;102840.20;;;15.91;55.24
53635;BME280;39542;-34.932;138.594;2023-08-06T02:22:14;102839.81;;;15.91;55.56
53635;BME280;39542;-34.932;138.594;2023-08-06T02:22:49;102839.73;;;15.90;55.76
53635;BME280;39542;-34.932;138.594;2023-08-06T02:23:23;102837.74;;;15.89;55.76
53635;BME280;39542;-34.932;138.594;2023-08-06T02:23:58;102836.85;;;15.88;55.85
53635;BME280;39542;-34.932;138.594;2023-08-06T02:24:33;102835.59;;;15.89;56.44
53635;BME280;39542;-34.932;138.594;2023-08-06T02:25:07;102835.53;;;15.88;56.67
53635;BME280;39542;-34.932;138.594;2023-08-06T02:25:42;102836.52;;;15.85;56.42
53635;BME280;39542;-34.932;138.594;2023-08-06T02:26:16;102834.82;;;15.85;56.23
53635;BME280;39542;-34.932;138.594;2023-08-06T02:26:52;102833.63;;;15.86;55.90
53635;BME280;39542;-34.932;138.594;2023-08-06T02:27:26;102831.84;;;15.87;55.90
53635;BME280;39542;-34.932;138.594;2023-08-06T02:28:00;102829.95;;;15.89;55.95
53635;BME280;39542;-34.932;138.594;2023-08-06T02:28:35;102827.48;;;15.89;55.73
53635;BME280;39542;-34.932;138.594;2023-08-06T02:29:09;102824.57;;;15.89;55.43
53635;BME280;39542;-34.932;138.594;2023-08-06T02:29:43;102821.45;;;15.90;55.38
53635;BME280;39542;-34.932;138.594;2023-08-06T02:30:18;102819.85;;;15.90;55.43
53635;BME280;39542;-34.932;138.594;2023-08-06T02:30:52;102821.27;;;15.86;55.57
53635;BME280;39542;-34.932;138.594;2023-08-06T02:31:27;102818.45;;;15.89;55.61
53635;BME280;39542;-34.932;138.594;2023-08-06T02:32:00;102815.06;;;15.87;55.50
53635;BME280;39542;-34.932;138.594;2023-08-06T02:32:35;102816.17;;;15.84;55.29
53635;BME280;39542;-34.932;138.594;2023-08-06T02:33:09;102815.20;;;15.82;55.32
53635;BME280;39542;-34.932;138.594;2023-08-06T02:33:44;102812.79;;;15.79;55.15
53635;BME280;39542;-34.932;138.594;2023-08-06T02:34:18;102810.91;;;15.78;55.14
53635;BME280;39542;-34.932;138.594;2023-08-06T02:34:52;102806.81;;;15.77;54.89
53635;BME280;39542;-34.932;138.594;2023-08-06T02:35:26;102805.12;;;15.76;54.68
53635;BME280;39542;-34.932;138.594;2023-08-06T02:36:03;102804.20;;;15.78;54.80
53635;BME280;39542;-34.932;138.594;2023-08-06T02:36:38;102801.39;;;15.81;54.81
53635;BME280;39542;-34.932;138.594;2023-08-06T02:37:12;102800.92;;;15.80;54.76
53635;BME280;39542;-34.932;138.594;2023-08-06T02:37:47;102798.89;;;15.81;54.77
53635;BME280;39542;-34.932;138.594;2023-08-06T02:38:21;102800.20;;;15.78;54.77
53635;BME280;39542;-34.932;138.594;2023-08-06T02:38:56;102795.05;;;15.85;54.71
53635;BME280;39542;-34.932;138.594;2023-08-06T02:39:30;102793.35;;;15.88;54.65
53635;BME280;39542;-34.932;138.594;2023-08-06T02:40:05;102790.77;;;15.90;54.77
53635;BME280;39542;-34.932;138.594;2023-08-06T02:40:44;102788.09;;;15.87;54.72
53635;BME280;39542;-34.932;138.594;2023-08-06T02:41:18;102786.80;;;15.85;54.84
53635;BME280;39542;-34.932;138.594;2023-08-06T02:41:53;102783.39;;;15.83;54.77
53635;BME280;39542;-34.932;138.594;2023-08-06T02:42:27;102780.08;;;15.79;54.50
53635;BME280;39542;-34.932;138.594;2023-08-06T02:43:01;102779.76;;;15.83;54.63
53635;BME280;39542;-34.932;138.594;2023-08-06T02:43:35;102777.44;;;15.84;54.52
53635;BME280;39542;-34.932;138.594;2023-08-06T02:44:10;102777.26;;;15.86;54.39
53635;BME280;39542;-34.932;138.594;2023-08-06T02:44:44;102777.17;;;15.88;54.68
53635;BME280;39542;-34.932;138.594;2023-08-06T02:45:18;102776.67;;;15.89;54.80
53635;BME280;39542;-34.932;138.594;2023-08-06T02:45:56;102774.68;;;15.88;54.83
53635;BME280;39542;-34.932;138.594;2023-08-06T02:46:30;102775.78;;;15.88;54.67
53635;BME280;39542;-34.932;138.594;2023-08-06T02:47:05;102769.55;;;15.88;54.84
53635;BME280;39542;-34.932;138.594;2023-08-06T02:47:40;102768.52;;;15.88;54.78
53635;BME280;39542;-34.932;138.594;2023-08-06T02:48:14;102765.90;;;15.89;54.64
53635;BME280;39542;-34.932;138.594;2023-08-06T02:48:48;102763.76;;;15.88;54.57
53635;BME280;39542;-34.932;138.594;2023-08-06T02:49:22;102760.13;;;15.88;54.57
53635;BME280;39542;-34.932;138.594;2023-08-06T02:49:56;102760.37;;;15.89;54.33
53635;BME280;39542;-34.932;138.594;2023-08-06T02:50:31;102759.87;;;15.89;54.64
53635;BME280;39542;-34.932;138.594;2023-08-06T02:51:05;102758.92;;;15.88;54.36
53635;BME280;39542;-34.932;138.594;2023-08-06T02:51:39;102758.75;;;15.86;54.43
53635;BME280;39542;-34.932;138.594;2023-08-06T02:52:14;102757.19;;;15.87;54.46
53635;BME280;39542;-34.932;138.594;2023-08-06T02:52:49;102756.48;;;15.87;54.52
53635;BME280;39542;-34.932;138.594;2023-08-06T02:53:23;102758.36;;;15.90;54.64
53635;BME280;39542;-34.932;138.594;2023-08-06T02:53:58;102758.80;;;15.90;54.71
53635;BME280;39542;-34.932;138.594;2023-08-06T02:54:33;102759.49;;;15.90;54.81
53635;BME280;39542;-34.932;138.594;2023-08-06T02:55:09;102759.94;;;15.90;54.96
53635;BME280;39542;-34.932;138.594;2023-08-06T02:55:48;102758.71;;;15.91;55.03
53635;BME280;39542;-34.932;138.594;2023-08-06T02:56:22;102762.51;;;15.90;55.15
53635;BME280;39542;-34.932;138.594;2023-08-06T02:56:56;102760.09;;;15.92;55.14
53635;BME280;39542;-34.932;138.594;2023-08-06T02:57:31;102756.74;;;15.91;55.19